Nearby METAR Reports

 

KHOB - Hobbs, New Mexico, USA
Distance from station: S 40mi, 65km
Updated: Sun, 03-Jul-2022 2:15am MDT
Clear
Clear
 Wind from SSE
Wind: SSE 8 mph , 13 km/h
Temperature: 73°F , 23°C
Dew Point: 57°F , 14°C
Humidity: 57%
Barometer: 30.04 inHg , 1017.3 hPa
Clouds: Clear
Visibility: 10 miles , 16 km
2022/07/03 08:15 KHOB 030815Z AUTO 15007KT 10SM CLR 23/14 A3004 RMK AO2
KGNC - Seminole, Texas, USA
Distance from station: SE 55mi, 89km
Updated: Sun, 03-Jul-2022 2:15am MDT
Clear
Clear
 Wind from SSE
Wind: SSE 6 mph , 9 km/h
Temperature: 75°F , 24°C
Dew Point: 59°F , 15°C
Humidity: 57%
Barometer: 30.08 inHg , 1018.6 hPa
Clouds: Clear
Visibility: 10 miles , 16 km
2022/07/03 08:15 KGNC 030815Z AUTO 15005KT 10SM CLR 24/15 A3008 RMK AO2 T02350153
 
KROW - Roswell, New Mexico, USA
Distance from station: W 67mi, 108km
Updated: Sun, 03-Jul-2022 1:51am MDT
Clear
Clear
 Wind from SSW
Wind: SSW 9 mph , 15 km/h
Temperature: 79°F , 26°C
Dew Point: 55°F , 13°C
Humidity: 45%
Barometer: 30.01 inHg , 1016.3 hPa
Clouds: Clear
Visibility: 10 miles , 16 km
2022/07/03 07:51 KROW 030751Z AUTO 20008KT 10SM CLR 26/13 A3001 RMK AO2 SLP084 T02560133 $
KATS - Artesia, New Mexico, USA
Distance from station: WSW 71mi, 114km
Updated: Sun, 03-Jul-2022 2:15am MDT
Clear
Clear
 Wind from SSE
Wind: SSE 6 mph , 9 km/h
Temperature: 75°F , 24°C
Dew Point: 59°F , 15°C
Humidity: 57%
Barometer: 30.02 inHg , 1016.6 hPa
Clouds: Clear
Visibility: 10 miles , 16 km
2022/07/03 08:15 KATS 030815Z AUTO 16005KT 10SM CLR 24/15 A3002 RMK AO2
 
KCVS - Cannon AFB,Clovis, New Mexico, USA
Distance from station: 0 78mi, 125km
Updated: Sun, 03-Jul-2022 1:58am MDT
Partly cloudy
Partly cloudy
 Wind from ENE
Wind: ENE 5 mph , 7 km/h
Temperature: 73°F , 23°C
Dew Point: 52°F , 11°C
Humidity: 47%
Barometer: 30.09 inHg , 1019 hPa
Clouds: Partly cloudy
Visibility: 10 miles , 16 km
Cloud details: Partly cloudy 19000 ft
2022/07/03 07:58 KCVS 030758Z AUTO 07004KT 10SM SCT190 23/11 A3009 RMK AO2 SLP118 T02260113 $
KE11 - Andrews, Texas, USA
Distance from station: SE 78mi, 126km
Updated: Sun, 03-Jul-2022 2:15am MDT
Clear
Clear
 Wind from S
Wind: S 7 mph , 11 km/h
Temperature: 75°F , 24°C
Dew Point: 59°F , 15°C
Humidity: 57%
Barometer: 30.03 inHg , 1016.9 hPa
Clouds: Clear
Visibility: 10 miles , 16 km
2022/07/03 08:15 KE11 030815Z AUTO 18006KT 10SM CLR 24/15 A3003 RMK AO2 T02350150
 
KCNM - Carlsbad, New Mexico, USA
Distance from station: SW 82mi, 132km
Updated: Sun, 03-Jul-2022 1:53am MDT
Clear
Clear
 Wind from S
Wind: S 7 mph , 11 km/h
Temperature: 79°F , 26°C
Dew Point: 57°F , 14°C
Humidity: 48%
Barometer: 29.99 inHg , 1015.6 hPa
Clouds: Clear
Visibility: 10 miles , 16 km
2022/07/03 07:53 KCNM 030753Z AUTO 18006KT 10SM CLR 26/14 A2999 RMK AO2 SLP090 T02560144 $
KCVN - Clovis Muni, New Mexico, USA
Distance from station: N 83mi, 133km
Updated: Sun, 03-Jul-2022 1:56am MDT
Clear
Clear
 Wind from E
Wind: E 5 mph , 7 km/h
Temperature: 73°F , 23°C
Dew Point: 54°F , 12°C
Humidity: 50%
Barometer: 30.10 inHg , 1019.3 hPa
Clouds: Clear
Visibility: 10 miles , 16 km
2022/07/03 07:56 KCVN 030756Z AUTO 09004KT 10SM CLR 23/12 A3010 RMK AO2 SLP137 T02280117
 
KLBB - Lubbock, Texas, USA
Distance from station: ENE 92mi, 149km
Updated: Sun, 03-Jul-2022 1:53am MDT
Few Clouds
Few Clouds
 Wind from S
Wind: S 6 mph , 9 km/h
Temperature: 79°F , 26°C
Dew Point: 55°F , 13°C
Humidity: 45%
Barometer: 30.04 inHg , 1017.3 hPa
Clouds: Few Clouds
Visibility: 10 miles , 16 km
Cloud details: Few Clouds 22000 ft
2022/07/03 07:53 KLBB 030753Z 18005KT 10SM FEW220 26/13 A3004 RMK AO2 SLP108 T02610128
KINK - Wink, Texas, USA
Distance from station: S 101mi, 163km
Updated: Sun, 03-Jul-2022 1:53am MDT
Clear
Clear
 Wind from SE
Wind: SE 14 mph , 22 km/h
Temperature: 79°F , 26°C
Dew Point: 59°F , 15°C
Humidity: 51%
Barometer: 29.97 inHg , 1014.9 hPa
Clouds: Clear
Visibility: 10 miles , 16 km
2022/07/03 07:53 KINK 030753Z AUTO 13012KT 10SM CLR 26/15 A2997 RMK AO2 SLP092 T02610150 $
 
KMAF - Midland, Texas, USA
Distance from station: SE 111mi, 179km
Updated: Sun, 03-Jul-2022 1:53am MDT
Clear
Clear
 Wind from S
Wind: S 7 mph , 11 km/h
Temperature: 75°F , 24°C
Dew Point: 61°F , 16°C
Humidity: 61%
Barometer: 30.00 inHg , 1015.9 hPa
Clouds: Clear
Visibility: 10 miles , 16 km
2022/07/03 07:53 KMAF 030753Z AUTO 18006KT 10SM CLR 24/16 A3000 RMK AO2 SLP106 T02440156 $
KSRR - Sierra B/Ruidoso, New Mexico, USA
Distance from station: W 127mi, 204km
Updated: Sun, 03-Jul-2022 2:15am MDT
Clear
Clear
 Wind from WNW
Wind: WNW 9 mph , 15 km/h
Temperature: 63°F , 17°C
Dew Point: 48°F , 9°C
Humidity: 59%
Barometer: 30.28 inHg , 1025.4 hPa
Clouds: Clear
Visibility: 10 miles , 16 km
2022/07/03 08:15 KSRR 030815Z AUTO 29008KT 10SM CLR 17/09 A3028 RMK AO2
 
KGDP - Guadalupe Pass, Texas, USA
Distance from station: SW 130mi, 209km
Updated: Sun, 03-Jul-2022 1:51am MDT
Clear
Clear
 Wind from SSW
Wind: SSW 15 mph , 24 km/h
Temperature: 75°F , 24°C
Dew Point: 52°F , 11°C
Humidity: 44%
Barometer: 30.15 inHg , 1021 hPa
Clouds: Clear
Visibility: 10 miles , 16 km
2022/07/03 07:51 KGDP 030751Z AUTO 20013KT 10SM CLR 24/11 A3015 RMK AO2 SLP111 T02390111 $